createdAt,value
2022-08-10T00:01:51.408Z,20.80
2022-08-10T00:04:22.070Z,20.80
2022-08-10T00:06:51.829Z,20.70
2022-08-10T00:09:22.116Z,20.70
2022-08-10T00:11:50.758Z,20.60
2022-08-10T00:14:19.240Z,20.60
2022-08-10T00:16:47.842Z,20.60
2022-08-10T00:19:18.123Z,20.50
2022-08-10T00:21:47.319Z,20.50
2022-08-10T00:24:16.171Z,20.40
2022-08-10T00:28:01.473Z,20.50
2022-08-10T00:29:34.897Z,20.40
2022-08-10T00:32:03.951Z,20.40
2022-08-10T00:34:34.131Z,20.40
2022-08-10T00:37:03.112Z,20.30
2022-08-10T00:39:34.550Z,20.30
2022-08-10T00:42:08.867Z,20.30
2022-08-10T00:44:38.561Z,20.20
2022-08-10T00:47:18.773Z,20.10
2022-08-10T00:49:56.926Z,20.10
2022-08-10T00:52:25.726Z,20.00
2022-08-10T00:54:54.900Z,20.00
2022-08-10T00:57:25.567Z,20.00
2022-08-10T00:59:58.410Z,19.90
2022-08-10T01:02:29.805Z,19.80
2022-08-10T01:05:02.133Z,19.80
2022-08-10T01:07:46.505Z,19.80
2022-08-10T01:10:39.411Z,19.80
2022-08-10T01:13:14.351Z,19.70
2022-08-10T01:15:53.961Z,19.70
2022-08-10T01:18:34.780Z,19.70
2022-08-10T01:21:30.604Z,19.70
2022-08-10T01:24:15.685Z,19.70
2022-08-10T01:27:06.567Z,19.60
2022-08-10T01:29:53.536Z,19.60
2022-08-10T01:32:31.480Z,19.60
2022-08-10T01:35:07.755Z,19.50
2022-08-10T01:37:43.205Z,19.50
2022-08-10T01:40:25.890Z,19.50
2022-08-10T01:42:59.554Z,19.40
2022-08-10T01:45:44.517Z,19.40
2022-08-10T01:48:30.957Z,19.30
2022-08-10T01:51:10.348Z,19.40
2022-08-10T01:53:43.504Z,19.30
2022-08-10T01:56:15.376Z,19.30
2022-08-10T01:58:46.224Z,19.30
2022-08-10T02:01:18.633Z,19.30
2022-08-10T02:04:03.568Z,19.20
2022-08-10T02:06:38.541Z,19.20
2022-08-10T02:09:09.032Z,19.10
2022-08-10T02:12:05.645Z,19.10
2022-08-10T02:14:33.006Z,19.00
2022-08-10T02:17:07.809Z,19.00
2022-08-10T02:19:39.715Z,19.00
2022-08-10T02:22:36.500Z,19.00
2022-08-10T02:25:01.447Z,18.90
2022-08-10T02:27:30.943Z,18.90
2022-08-10T02:30:00.322Z,18.90
2022-08-10T02:32:38.259Z,18.90
2022-08-10T02:35:18.628Z,18.80
2022-08-10T02:37:53.991Z,18.80
2022-08-10T02:45:12.913Z,18.80
2022-08-10T02:45:21.834Z,18.70
2022-08-10T02:46:14.323Z,18.70
2022-08-10T02:48:59.417Z,18.70
2022-08-10T02:52:07.106Z,18.70
2022-08-10T02:54:29.364Z,18.60
2022-08-10T02:57:05.822Z,18.60
2022-08-10T02:59:40.331Z,18.60
2022-08-10T03:02:13.482Z,18.60
2022-08-10T03:04:57.859Z,18.60
2022-08-10T03:07:44.717Z,18.60
2022-08-10T03:10:17.564Z,18.50
2022-08-10T03:12:50.721Z,18.50
2022-08-10T03:15:21.825Z,18.50
2022-08-10T03:17:57.614Z,18.40
2022-08-10T03:20:38.216Z,18.40
2022-08-10T03:23:13.984Z,18.40
2022-08-10T03:25:53.709Z,18.40
2022-08-10T03:28:23.797Z,18.40
2022-08-10T03:30:52.753Z,18.40
2022-08-10T03:33:23.569Z,18.30
2022-08-10T03:36:42.310Z,18.30
2022-08-10T03:38:46.105Z,18.30
2022-08-10T03:41:16.780Z,18.30
2022-08-10T03:43:48.967Z,18.30
2022-08-10T03:46:21.260Z,18.30
2022-08-10T03:48:53.415Z,18.30
2022-08-10T03:51:24.385Z,18.20
2022-08-10T03:54:04.539Z,18.20
2022-08-10T03:56:38.212Z,18.20
2022-08-10T03:59:08.107Z,18.10
2022-08-10T04:02:43.757Z,18.20
2022-08-10T04:04:26.245Z,18.10
2022-08-10T04:06:59.091Z,18.10
2022-08-10T04:09:29.794Z,18.10
2022-08-10T04:12:17.810Z,18.00
2022-08-10T04:14:50.605Z,17.90
2022-08-10T04:17:57.502Z,17.90
2022-08-10T04:20:19.393Z,17.90
2022-08-10T04:22:53.369Z,17.80
2022-08-10T04:25:23.858Z,17.80
2022-08-10T04:27:53.560Z,17.80
2022-08-10T04:30:22.492Z,17.70
2022-08-10T04:32:54.442Z,17.70
2022-08-10T04:35:25.042Z,17.70
2022-08-10T04:37:57.162Z,17.70
2022-08-10T04:40:30.371Z,17.70
2022-08-10T04:43:05.823Z,17.70
2022-08-10T04:45:47.294Z,17.70
2022-08-10T04:48:40.748Z,17.80
2022-08-10T04:51:18.091Z,17.80
2022-08-10T04:54:04.737Z,17.80
2022-08-10T04:56:36.976Z,17.90
2022-08-10T04:59:06.502Z,17.90
2022-08-10T05:02:12.283Z,18.00
2022-08-10T05:04:34.157Z,18.10
2022-08-10T05:07:06.468Z,18.10
2022-08-10T05:10:01.194Z,18.20
2022-08-10T05:12:25.149Z,18.20
2022-08-10T05:14:54.599Z,18.30
2022-08-10T05:17:23.981Z,18.30
2022-08-10T05:20:03.305Z,18.40
2022-08-10T05:22:36.612Z,18.40
2022-08-10T05:25:08.831Z,18.50
2022-08-10T05:27:38.787Z,18.60
2022-08-10T05:30:08.917Z,18.70
2022-08-10T05:32:57.539Z,18.80
2022-08-10T05:35:26.735Z,18.90
2022-08-10T05:38:13.347Z,19.00
2022-08-10T05:40:47.533Z,19.00
2022-08-10T05:43:19.317Z,19.10
2022-08-10T05:46:17.245Z,19.20
2022-08-10T05:48:56.355Z,19.30
2022-08-10T05:51:28.138Z,19.40
2022-08-10T05:54:03.253Z,19.50
2022-08-10T05:56:55.442Z,19.60
2022-08-10T06:00:33.384Z,19.70
2022-08-10T06:02:32.922Z,19.80
2022-08-10T06:05:08.265Z,19.90
2022-08-10T06:07:40.990Z,20.00
2022-08-10T06:10:13.920Z,20.10
2022-08-10T06:13:19.388Z,20.20
2022-08-10T06:15:59.039Z,20.30
2022-08-10T06:18:27.801Z,20.40
2022-08-10T06:20:56.950Z,20.50
2022-08-10T06:23:27.675Z,20.60
2022-08-10T06:26:10.671Z,20.70
2022-08-10T06:29:02.015Z,20.80
2022-08-10T06:31:47.008Z,20.90
2022-08-10T06:34:21.535Z,21.00
2022-08-10T06:36:51.267Z,21.20
2022-08-10T06:39:36.335Z,21.30
2022-08-10T06:42:16.090Z,21.40
2022-08-10T06:45:01.771Z,21.50
2022-08-10T06:47:41.696Z,21.60
2022-08-10T06:50:44.662Z,21.70
2022-08-10T06:53:15.377Z,21.80
2022-08-10T06:55:55.173Z,21.90
2022-08-10T06:58:27.509Z,22.00
2022-08-10T07:00:58.177Z,22.10
2022-08-10T07:03:35.026Z,22.20
2022-08-10T07:06:05.839Z,22.30
2022-08-10T07:08:36.835Z,22.40
2022-08-10T07:11:11.454Z,22.40
2022-08-10T07:14:17.120Z,22.50
2022-08-10T07:16:33.243Z,22.70
2022-08-10T07:19:03.767Z,22.80
2022-08-10T07:21:33.502Z,22.90
2022-08-10T07:24:04.899Z,23.00
2022-08-10T07:26:34.835Z,23.10
2022-08-10T07:29:04.384Z,23.20
2022-08-10T07:31:56.210Z,23.30
2022-08-10T07:34:29.165Z,23.40
2022-08-10T07:37:02.062Z,23.50
2022-08-10T07:40:02.828Z,23.60
2022-08-10T07:42:23.238Z,23.70
2022-08-10T07:44:52.183Z,23.80
2022-08-10T07:47:53.699Z,23.90
2022-08-10T07:50:17.553Z,24.10
2022-08-10T07:52:48.647Z,24.20
2022-08-10T07:55:19.647Z,24.30
2022-08-10T07:58:08.386Z,24.40
2022-08-10T08:00:38.370Z,24.50
2022-08-10T08:03:09.450Z,24.50
2022-08-10T08:05:58.216Z,24.70
2022-08-10T08:08:28.770Z,24.70
2022-08-10T08:10:58.936Z,24.80
2022-08-10T08:13:29.270Z,24.90
2022-08-10T08:16:17.580Z,25.00
2022-08-10T08:24:05.154Z,25.30
2022-08-10T08:24:34.347Z,25.40
2022-08-10T08:27:04.638Z,25.50
2022-08-10T08:29:36.366Z,25.60
2022-08-10T08:32:06.443Z,25.70
2022-08-10T08:34:40.790Z,25.70
2022-08-10T08:37:12.120Z,25.90
2022-08-10T08:39:48.519Z,26.00
2022-08-10T08:42:39.493Z,26.10
2022-08-10T08:45:21.730Z,26.20
2022-08-10T08:48:18.561Z,26.30
2022-08-10T08:51:01.722Z,26.40
2022-08-10T08:54:08.892Z,26.50
2022-08-10T08:56:49.960Z,26.60
2022-08-10T08:59:32.232Z,26.70
2022-08-10T09:02:14.468Z,26.80
2022-08-10T09:05:03.742Z,26.90
2022-08-10T09:08:03.205Z,27.00
2022-08-10T09:10:55.654Z,27.20
2022-08-10T09:13:31.682Z,27.30
2022-08-10T09:16:16.044Z,27.30
2022-08-10T09:18:52.407Z,27.40
2022-08-10T09:21:29.280Z,27.50
2022-08-10T09:24:06.018Z,27.60
2022-08-10T09:26:49.723Z,27.70
2022-08-10T09:29:26.954Z,27.80
2022-08-10T09:36:14.962Z,28.00
2022-08-10T09:36:23.359Z,28.10
2022-08-10T09:38:12.378Z,28.20
2022-08-10T09:40:58.920Z,28.40
2022-08-10T09:43:49.526Z,28.60
2022-08-10T09:46:33.507Z,28.80
2022-08-10T09:49:16.169Z,28.90
2022-08-10T09:51:56.981Z,29.10
2022-08-10T09:54:55.454Z,29.30
2022-08-10T09:57:45.100Z,29.40
2022-08-10T10:00:21.316Z,29.50
2022-08-10T10:03:04.590Z,29.70
2022-08-10T10:05:51.241Z,29.80
2022-08-10T10:08:42.925Z,29.90
2022-08-10T10:11:19.156Z,29.90
2022-08-10T10:14:11.790Z,30.10
2022-08-10T10:16:58.232Z,30.10
2022-08-10T10:19:40.835Z,30.20
2022-08-10T10:22:28.879Z,30.30
2022-08-10T10:25:18.158Z,30.40
2022-08-10T10:27:59.512Z,30.60
2022-08-10T10:30:34.488Z,30.70
2022-08-10T10:33:14.729Z,30.70
2022-08-10T10:35:52.353Z,30.90
2022-08-10T10:38:24.392Z,31.00
2022-08-10T10:40:59.431Z,31.00
2022-08-10T10:43:42.228Z,31.10
2022-08-10T10:46:34.489Z,31.20
2022-08-10T10:49:17.003Z,31.20
2022-08-10T10:51:52.908Z,31.30
2022-08-10T10:54:30.786Z,31.40
2022-08-10T10:57:07.080Z,31.50
2022-08-10T10:59:55.738Z,31.60
2022-08-10T11:02:43.468Z,31.70
2022-08-10T11:05:23.218Z,31.80
2022-08-10T11:07:57.971Z,32.00
2022-08-10T11:10:34.637Z,32.40
2022-08-10T11:14:26.971Z,33.10
2022-08-10T11:16:21.366Z,34.20
2022-08-10T11:18:59.530Z,35.20
2022-08-10T11:21:50.641Z,36.20
2022-08-10T11:24:42.980Z,37.00
2022-08-10T11:27:24.832Z,37.60
2022-08-10T11:30:01.872Z,38.50
2022-08-10T11:32:38.457Z,39.30
2022-08-10T11:35:13.739Z,40.00
2022-08-10T11:38:32.388Z,40.60
2022-08-10T11:40:45.580Z,41.00
2022-08-10T11:43:22.053Z,41.60
2022-08-10T11:45:55.921Z,42.20
2022-08-10T11:48:53.125Z,42.60
2022-08-10T11:51:27.884Z,42.90
2022-08-10T11:54:09.984Z,43.00
2022-08-10T11:56:47.987Z,43.40
2022-08-10T11:59:36.082Z,43.80
2022-08-10T12:02:07.297Z,44.20
2022-08-10T12:04:37.488Z,44.70
2022-08-10T12:09:23.968Z,45.00
2022-08-10T12:10:10.582Z,45.20
2022-08-10T12:12:46.939Z,45.50
2022-08-10T12:15:23.054Z,45.70
2022-08-10T12:17:55.969Z,46.10
2022-08-10T12:20:30.307Z,46.20
2022-08-10T12:23:06.137Z,45.90
2022-08-10T12:25:56.386Z,45.90
2022-08-10T12:28:50.082Z,46.20
2022-08-10T12:31:31.142Z,46.60
2022-08-10T12:34:09.886Z,46.70
2022-08-10T12:36:43.069Z,47.00
2022-08-10T12:39:17.990Z,47.40
2022-08-10T12:41:54.252Z,47.70
2022-08-10T12:44:41.274Z,48.00
2022-08-10T12:47:21.500Z,48.10
2022-08-10T12:50:30.910Z,48.30
2022-08-10T12:52:52.983Z,48.60
2022-08-10T12:55:22.353Z,48.90
2022-08-10T12:57:55.905Z,49.20
2022-08-10T13:00:32.077Z,49.40
2022-08-10T13:03:04.045Z,49.60
2022-08-10T13:06:00.200Z,49.80
2022-08-10T13:08:42.163Z,49.90
2022-08-10T13:12:18.248Z,49.80
2022-08-10T13:14:11.262Z,49.60
2022-08-10T13:16:42.545Z,49.20
2022-08-10T13:19:16.395Z,49.20
2022-08-10T13:21:46.147Z,49.40
2022-08-10T13:24:18.003Z,49.60
2022-08-10T13:27:24.980Z,50.00
2022-08-10T13:29:51.802Z,50.40
2022-08-10T13:32:25.746Z,50.00
2022-08-10T13:34:57.933Z,50.10
2022-08-10T13:37:28.831Z,50.30
2022-08-10T13:40:02.119Z,50.60
2022-08-10T13:42:34.525Z,50.80
2022-08-10T13:45:11.895Z,50.90
2022-08-10T13:47:49.370Z,51.00
2022-08-10T13:50:35.297Z,51.00
2022-08-10T13:53:13.841Z,50.60
2022-08-10T13:55:55.514Z,50.40
2022-08-10T13:58:29.252Z,50.30
2022-08-10T14:01:01.797Z,50.40
2022-08-10T14:03:36.249Z,50.80
2022-08-10T14:06:08.206Z,51.00
2022-08-10T14:08:38.576Z,51.50
2022-08-10T14:11:13.813Z,51.90
2022-08-10T14:13:46.791Z,51.70
2022-08-10T14:16:18.839Z,51.50
2022-08-10T14:18:50.864Z,51.70
2022-08-10T14:21:19.947Z,52.10
2022-08-10T14:23:53.177Z,52.40
2022-08-10T14:26:26.800Z,52.20
2022-08-10T14:28:59.397Z,52.20
2022-08-10T14:31:34.750Z,52.20
2022-08-10T14:34:08.715Z,52.10
2022-08-10T14:36:43.353Z,51.90
2022-08-10T14:39:16.670Z,51.80
2022-08-10T14:42:03.839Z,51.70
2022-08-10T14:44:47.345Z,51.70
2022-08-10T14:47:52.455Z,51.90
2022-08-10T14:50:09.996Z,52.20
2022-08-10T14:52:44.309Z,52.70
2022-08-10T14:55:19.114Z,53.00
2022-08-10T14:58:16.594Z,53.40
2022-08-10T15:00:43.041Z,53.50
2022-08-10T15:04:02.611Z,53.60
2022-08-10T15:06:18.183Z,53.80
2022-08-10T15:08:48.002Z,53.50
2022-08-10T15:12:13.009Z,53.20
2022-08-10T15:14:33.254Z,53.10
2022-08-10T15:16:58.775Z,53.20
2022-08-10T15:20:02.976Z,53.50
2022-08-10T15:22:42.018Z,53.50
2022-08-10T15:25:19.105Z,53.60
2022-08-10T15:27:56.415Z,53.60
2022-08-10T15:30:32.332Z,53.80
2022-08-10T15:34:03.612Z,53.90
2022-08-10T15:36:34.981Z,54.10
2022-08-10T15:39:16.485Z,54.20
2022-08-10T15:42:02.129Z,54.40
2022-08-10T15:44:40.250Z,54.60
2022-08-10T15:47:14.992Z,54.30
2022-08-10T15:49:52.945Z,53.30
2022-08-10T15:52:38.685Z,52.50
2022-08-10T15:55:43.452Z,51.70
2022-08-10T15:58:07.187Z,50.60
2022-08-10T16:00:40.960Z,49.90
2022-08-10T16:03:15.905Z,49.70
2022-08-10T16:06:01.913Z,50.00
2022-08-10T16:08:56.651Z,50.00
2022-08-10T16:11:40.189Z,50.30
2022-08-10T16:14:14.508Z,50.30
2022-08-10T16:16:48.995Z,49.60
2022-08-10T16:19:24.335Z,49.40
2022-08-10T16:22:01.041Z,49.40
2022-08-10T16:24:35.290Z,49.10
2022-08-10T16:27:07.564Z,49.00
2022-08-10T16:29:56.024Z,49.10
2022-08-10T16:32:26.854Z,49.30
2022-08-10T16:34:57.556Z,49.50
2022-08-10T16:37:57.931Z,49.60
2022-08-10T16:40:26.922Z,49.40
2022-08-10T16:42:56.661Z,49.40
2022-08-10T16:45:32.572Z,49.40
2022-08-10T16:48:02.561Z,49.30
2022-08-10T16:50:34.249Z,49.20
2022-08-10T16:53:06.327Z,49.00
2022-08-10T16:55:49.124Z,48.60
2022-08-10T16:58:22.273Z,48.40
2022-08-10T17:00:52.886Z,48.30
2022-08-10T17:04:07.414Z,48.30
2022-08-10T17:06:22.079Z,48.10
2022-08-10T17:08:55.422Z,47.90
2022-08-10T17:11:30.168Z,47.70
2022-08-10T17:13:59.635Z,47.10
2022-08-10T17:16:34.933Z,46.70
2022-08-10T17:19:05.174Z,46.40
2022-08-10T17:21:50.974Z,46.20
2022-08-10T17:24:23.896Z,46.10
2022-08-10T17:28:05.003Z,46.00
2022-08-10T17:30:00.926Z,45.90
2022-08-10T17:32:44.418Z,45.80
2022-08-10T17:35:23.083Z,45.60
2022-08-10T17:37:57.748Z,45.30
2022-08-10T17:40:28.616Z,45.10
2022-08-10T17:42:59.375Z,44.80
2022-08-10T17:45:48.507Z,44.60
2022-08-10T17:48:19.684Z,44.10
2022-08-10T17:50:52.569Z,43.70
2022-08-10T17:53:26.324Z,43.40
2022-08-10T17:55:56.816Z,43.10
2022-08-10T17:58:29.600Z,42.90
2022-08-10T18:01:38.972Z,42.60
2022-08-10T18:03:53.188Z,42.30
2022-08-10T18:06:22.988Z,41.80
2022-08-10T18:08:57.013Z,41.40
2022-08-10T18:11:30.464Z,41.00
2022-08-10T18:14:03.581Z,40.50
2022-08-10T18:16:34.357Z,40.00
2022-08-10T18:19:07.852Z,39.40
2022-08-10T18:21:41.382Z,38.80
2022-08-10T18:24:16.442Z,38.20
2022-08-10T18:26:48.365Z,37.60
2022-08-10T18:29:21.610Z,37.00
2022-08-10T18:31:55.439Z,36.40
2022-08-10T18:34:25.795Z,35.60
2022-08-10T18:36:55.600Z,34.70
2022-08-10T18:39:28.407Z,34.00
2022-08-10T18:42:05.493Z,33.30
2022-08-10T18:44:41.264Z,32.60
2022-08-10T18:47:16.406Z,32.10
2022-08-10T18:49:57.836Z,31.60
2022-08-10T18:52:29.399Z,31.10
2022-08-10T18:55:14.462Z,30.70
2022-08-10T18:58:08.400Z,30.40
2022-08-10T19:00:53.148Z,29.90
2022-08-10T19:03:47.301Z,29.60
2022-08-10T19:06:51.885Z,29.30
2022-08-10T19:09:48.339Z,29.00
2022-08-10T19:12:33.890Z,28.80
2022-08-10T19:15:14.986Z,28.50
2022-08-10T19:18:05.585Z,28.30
2022-08-10T19:20:43.286Z,28.10
2022-08-10T19:23:26.745Z,27.90
2022-08-10T19:26:42.217Z,27.70
2022-08-10T19:28:58.479Z,27.60
2022-08-10T19:31:44.124Z,27.40
2022-08-10T19:34:34.638Z,27.20
2022-08-10T19:37:15.419Z,27.10
2022-08-10T19:39:57.621Z,26.90
2022-08-10T19:42:32.999Z,26.80
2022-08-10T19:46:01.581Z,26.60
2022-08-10T19:48:15.378Z,26.50
2022-08-10T19:50:49.396Z,26.30
2022-08-10T19:53:27.681Z,26.20
2022-08-10T19:56:24.435Z,26.10
2022-08-10T19:59:01.670Z,26.00
2022-08-10T20:01:54.493Z,25.90
2022-08-10T20:04:29.408Z,25.80
2022-08-10T20:07:13.652Z,25.70
2022-08-10T20:09:47.566Z,25.60
2022-08-10T20:12:22.873Z,25.40
2022-08-10T20:15:01.745Z,25.30
2022-08-10T20:17:45.046Z,25.20
2022-08-10T20:20:36.969Z,25.10
2022-08-10T20:23:17.698Z,24.90
2022-08-10T20:25:52.980Z,24.80
2022-08-10T20:28:29.347Z,24.70
2022-08-10T20:31:07.334Z,24.60
2022-08-10T20:33:42.489Z,24.50
2022-08-10T20:36:22.547Z,24.40
2022-08-10T20:39:04.888Z,24.40
2022-08-10T20:41:47.979Z,24.20
2022-08-10T20:44:33.058Z,24.10
2022-08-10T20:47:09.832Z,24.00
2022-08-10T20:49:46.273Z,23.90
2022-08-10T20:52:15.400Z,23.80
2022-08-10T20:54:51.105Z,23.70
2022-08-10T20:58:03.504Z,23.60
2022-08-10T21:00:47.881Z,23.50
2022-08-10T21:03:31.714Z,23.40
2022-08-10T21:06:42.268Z,23.30
2022-08-10T21:09:33.896Z,23.20
2022-08-10T21:12:29.035Z,23.10
2022-08-10T21:15:08.391Z,23.00
2022-08-10T21:17:48.459Z,22.90
2022-08-10T21:20:34.532Z,22.80
2022-08-10T21:23:08.402Z,22.70
2022-08-10T21:25:47.827Z,22.60
2022-08-10T21:31:30.827Z,22.60
2022-08-10T21:34:19.148Z,22.40
2022-08-10T21:36:55.055Z,22.40
2022-08-10T21:39:42.779Z,22.30
2022-08-10T21:42:46.178Z,22.20
2022-08-10T21:45:59.234Z,22.20
2022-08-10T21:48:57.664Z,22.10
2022-08-10T21:52:00.980Z,22.00
2022-08-10T21:55:02.769Z,21.90
2022-08-10T21:58:00.479Z,21.80
2022-08-10T22:00:47.026Z,21.70
2022-08-10T22:03:39.451Z,21.60
2022-08-10T22:06:30.738Z,21.50
2022-08-10T22:09:20.883Z,21.50
2022-08-10T22:12:24.986Z,21.40
2022-08-10T22:15:42.555Z,21.30
2022-08-10T22:18:32.041Z,21.30
2022-08-10T22:21:27.126Z,21.20
2022-08-10T22:24:27.993Z,21.20
2022-08-10T22:27:46.329Z,21.10
2022-08-10T22:30:35.992Z,21.10
2022-08-10T22:33:34.468Z,21.00
2022-08-10T22:36:46.611Z,20.90
2022-08-10T22:40:12.488Z,20.90
2022-08-10T22:43:10.713Z,20.80
2022-08-10T22:46:06.207Z,20.80
2022-08-10T22:48:59.674Z,20.80
2022-08-10T22:51:39.086Z,20.80
2022-08-10T22:54:33.584Z,20.80
2022-08-10T22:57:22.518Z,20.80
2022-08-10T22:59:52.376Z,20.80
2022-08-10T23:02:31.454Z,20.80
2022-08-10T23:05:07.871Z,20.80
2022-08-10T23:07:46.418Z,20.80
2022-08-10T23:10:17.527Z,20.80
2022-08-10T23:12:50.055Z,20.80
2022-08-10T23:15:43.778Z,20.80
2022-08-10T23:18:33.889Z,20.70
2022-08-10T23:21:03.896Z,20.70
2022-08-10T23:23:39.920Z,20.70
2022-08-10T23:26:11.549Z,20.70
2022-08-10T23:29:05.221Z,20.70
2022-08-10T23:31:58.347Z,20.60
2022-08-10T23:34:26.438Z,20.60
2022-08-10T23:36:57.660Z,20.60
2022-08-10T23:39:33.958Z,20.50
2022-08-10T23:42:07.813Z,20.50
2022-08-10T23:44:43.783Z,20.50
2022-08-10T23:47:15.358Z,20.50
2022-08-10T23:49:45.667Z,20.50
2022-08-10T23:52:16.867Z,20.50
2022-08-10T23:54:51.160Z,20.50
2022-08-10T23:57:22.248Z,20.50
2022-08-10T23:59:55.145Z,20.50
